Time;durP1;ratioP1;P1;durP2;ratioP2;P2;SDS_P1;SDS_P2;PMS_P1;PMS_P2;Temp;Humidity;BMP_temperature;BMP_pressure;BME280_temperature;BME280_humidity;BME280_pressure;Samples;Min_cycle;Max_cycle;Signal;HPM_P1;HPM_P2
2023/06/18 00:02:16;;;;;;;11.33;5.97;;;16.90;98.00;;;;;;5072567;28;20456;-70
2023/06/18 00:04:43;;;;;;;10.13;5.97;;;16.90;98.00;;;;;;5072456;28;20471;-70
2023/06/18 00:07:19;;;;;;;13.53;6.17;;;16.60;98.00;;;;;;5072610;28;20461;-70
2023/06/18 00:09:46;;;;;;;12.60;6.10;;;16.40;98.00;;;;;;5072417;28;20745;-70
2023/06/18 00:12:13;;;;;;;11.50;6.10;;;16.40;98.00;;;;;;5071266;28;20465;-69
2023/06/18 00:14:40;;;;;;;12.60;6.53;;;16.40;98.00;;;;;;5072450;28;20457;-70
2023/06/18 00:17:07;;;;;;;12.40;6.37;;;16.40;98.00;;;;;;5072455;28;20509;-70
2023/06/18 00:19:35;;;;;;;13.33;5.73;;;16.70;98.00;;;;;;5072429;28;20468;-69
2023/06/18 00:22:02;;;;;;;11.27;5.90;;;16.70;98.00;;;;;;5072437;28;20457;-69
2023/06/18 00:24:31;;;;;;;9.30;5.30;;;16.60;98.00;;;;;;5072610;28;20991;-69
2023/06/18 00:26:58;;;;;;;19.50;6.67;;;16.60;98.00;;;;;;5072305;28;20785;-69
2023/06/18 00:29:26;;;;;;;10.33;5.70;;;16.40;98.00;;;;;;5072136;28;20977;-70
2023/06/18 00:31:53;;;;;;;10.60;5.60;;;16.30;98.00;;;;;;5072188;28;20938;-69
2023/06/18 00:34:32;;;;;;;9.77;5.47;;;16.20;98.00;;;;;;5071404;28;20457;-69
2023/06/18 00:37:00;;;;;;;10.53;5.60;;;16.20;98.00;;;;;;5070950;28;20537;-69
2023/06/18 00:39:27;;;;;;;11.43;5.77;;;16.10;98.00;;;;;;5070794;28;20559;-69
2023/06/18 00:41:56;;;;;;;14.63;6.00;;;16.10;98.00;;;;;;5071946;28;20457;-70
2023/06/18 00:44:23;;;;;;;11.97;6.00;;;16.00;98.00;;;;;;5072068;28;20456;-70
2023/06/18 00:46:51;;;;;;;12.30;5.77;;;15.80;98.00;;;;;;5072013;28;20530;-70
2023/06/18 00:49:18;;;;;;;10.33;5.70;;;15.90;98.00;;;;;;5072074;28;20456;-69
2023/06/18 00:51:46;;;;;;;9.47;5.20;;;16.10;98.00;;;;;;5072002;28;20464;-69
2023/06/18 00:54:15;;;;;;;10.23;5.30;;;16.00;98.00;;;;;;5071942;28;20456;-69
2023/06/18 00:56:52;;;;;;;12.60;5.70;;;15.90;98.00;;;;;;5071907;28;20830;-69
2023/06/18 00:59:22;;;;;;;12.30;5.70;;;16.10;98.00;;;;;;5071832;28;20456;-69
2023/06/18 01:01:51;;;;;;;12.80;5.77;;;16.20;98.00;;;;;;5071739;28;20465;-69
2023/06/18 01:04:20;;;;;;;10.73;5.40;;;16.10;98.00;;;;;;5071757;28;20885;-69
2023/06/18 01:06:51;;;;;;;11.10;5.70;;;16.10;98.00;;;;;;5071833;28;20500;-69
2023/06/18 01:09:21;;;;;;;21.73;6.30;;;16.00;98.00;;;;;;5071684;28;20457;-69
2023/06/18 01:11:51;;;;;;;11.87;5.90;;;15.70;98.00;;;;;;5071796;28;20453;-69
2023/06/18 01:14:21;;;;;;;12.00;5.67;;;15.80;98.00;;;;;;5071935;28;20456;-69
2023/06/18 01:16:51;;;;;;;9.87;5.57;;;15.70;98.00;;;;;;5071752;28;20480;-69
2023/06/18 01:19:43;;;;;;;14.90;6.77;;;15.50;98.00;;;;;;5072011;28;20452;-69
2023/06/18 01:22:21;;;;;;;9.60;5.23;;;15.30;98.00;;;;;;5071977;28;20460;-69
2023/06/18 01:24:51;;;;;;;10.97;5.63;;;15.40;98.00;;;;;;5071441;28;20459;-69
2023/06/18 01:27:21;;;;;;;12.27;6.20;;;15.50;98.00;;;;;;5071727;28;20962;-69
2023/06/18 01:29:52;;;;;;;11.97;5.33;;;15.60;98.00;;;;;;5071279;28;20453;-69
2023/06/18 01:32:22;;;;;;;10.50;5.10;;;15.50;98.00;;;;;;5071537;28;20502;-69
2023/06/18 01:34:53;;;;;;;10.97;5.97;;;15.40;98.00;;;;;;5071326;28;20453;-69
2023/06/18 01:37:33;;;;;;;10.73;5.73;;;15.40;98.00;;;;;;5071506;28;20847;-69
2023/06/18 01:40:11;;;;;;;13.97;5.80;;;15.30;98.00;;;;;;5071407;28;20499;-70
2023/06/18 01:42:41;;;;;;;11.53;5.73;;;15.40;98.00;;;;;;5071412;28;20823;-69
2023/06/18 01:45:16;;;;;;;9.77;5.40;;;15.40;98.00;;;;;;5072067;28;20456;-69
2023/06/18 01:47:45;;;;;;;9.43;5.53;;;15.30;98.00;;;;;;5075186;28;21113;-69
2023/06/18 01:50:14;;;;;;;12.23;6.00;;;15.10;98.00;;;;;;5075133;28;20873;-69
2023/06/18 01:52:45;;;;;;;10.50;4.80;;;15.10;98.00;;;;;;5075152;28;20947;-69
2023/06/18 01:55:13;;;;;;;12.50;5.87;;;15.20;98.00;;;;;;5075301;28;20456;-69
2023/06/18 01:57:41;;;;;;;11.60;6.07;;;15.40;98.00;;;;;;5075097;28;20825;-69
2023/06/18 02:00:11;;;;;;;8.60;5.20;;;15.40;98.00;;;;;;5075026;28;20794;-69
2023/06/18 02:02:38;;;;;;;9.67;5.00;;;15.30;98.00;;;;;;5074679;28;20464;-69
2023/06/18 02:05:06;;;;;;;12.47;5.67;;;15.30;98.00;;;;;;5073860;28;20457;-69
2023/06/18 02:07:33;;;;;;;12.10;6.20;;;15.20;98.00;;;;;;5075160;28;20911;-69
2023/06/18 02:10:00;;;;;;;13.40;6.20;;;15.00;98.00;;;;;;5074984;28;20452;-69
2023/06/18 02:12:27;;;;;;;13.57;5.60;;;15.00;98.00;;;;;;5074990;28;20523;-69
2023/06/18 02:14:54;;;;;;;11.50;5.80;;;15.00;98.00;;;;;;5074625;28;20456;-69
2023/06/18 02:17:23;;;;;;;11.00;5.57;;;15.00;98.00;;;;;;5073602;28;21123;-69
2023/06/18 02:19:50;;;;;;;9.10;5.00;;;14.90;98.00;;;;;;5074177;28;20453;-69
2023/06/18 02:22:18;;;;;;;13.57;5.30;;;14.80;98.00;;;;;;5074494;28;20475;-69
2023/06/18 02:24:45;;;;;;;11.90;5.20;;;14.90;98.00;;;;;;5074293;28;20456;-69
2023/06/18 02:27:13;;;;;;;10.60;5.47;;;14.80;98.00;;;;;;5074666;28;20449;-69
2023/06/18 02:29:40;;;;;;;11.43;5.67;;;14.90;98.00;;;;;;5074212;28;20449;-69
2023/06/18 02:32:07;;;;;;;9.80;5.67;;;15.10;98.00;;;;;;5073294;28;20943;-69
2023/06/18 02:34:36;;;;;;;10.60;5.73;;;15.10;98.00;;;;;;5074365;28;20457;-69
2023/06/18 02:37:03;;;;;;;12.27;5.80;;;14.90;98.00;;;;;;5074393;28;20468;-69
2023/06/18 02:39:32;;;;;;;11.33;5.23;;;14.70;98.00;;;;;;5074250;28;20464;-69
2023/06/18 02:41:59;;;;;;;13.77;6.13;;;14.50;98.00;;;;;;5074183;28;20480;-69
2023/06/18 02:44:28;;;;;;;11.00;5.50;;;14.50;98.00;;;;;;5074112;28;20441;-69
2023/06/18 02:46:55;;;;;;;11.77;5.73;;;14.60;98.00;;;;;;5074112;28;20449;-70
2023/06/18 02:49:22;;;;;;;11.33;5.23;;;14.70;98.00;;;;;;5074138;28;20965;-69
2023/06/18 02:51:51;;;;;;;10.07;5.60;;;14.80;98.00;;;;;;5074117;28;20452;-69
2023/06/18 02:54:18;;;;;;;12.43;5.43;;;14.90;98.00;;;;;;5072846;28;20938;-69
2023/06/18 02:56:45;;;;;;;9.93;5.17;;;15.00;98.00;;;;;;5073589;28;20465;-69
2023/06/18 02:59:12;;;;;;;11.07;5.37;;;15.00;98.00;;;;;;5073901;28;20496;-69
2023/06/18 03:01:39;;;;;;;8.80;5.30;;;14.90;98.00;;;;;;5073917;28;20465;-69
2023/06/18 03:04:06;;;;;;;12.07;6.47;;;14.80;98.00;;;;;;5073788;28;20456;-69
2023/06/18 03:06:33;;;;;;;12.63;5.97;;;14.50;98.00;;;;;;5073144;28;20457;-69
2023/06/18 03:09:03;;;;;;;15.60;6.50;;;14.30;98.00;;;;;;5073000;28;20460;-69
2023/06/18 03:11:30;;;;;;;13.77;6.47;;;14.10;98.00;;;;;;5073293;28;20467;-69
2023/06/18 03:13:58;;;;;;;13.57;6.03;;;14.20;98.00;;;;;;5072935;28;20531;-69
2023/06/18 03:16:26;;;;;;;11.57;5.63;;;14.20;98.00;;;;;;5073002;28;20453;-69
2023/06/18 03:18:53;;;;;;;13.67;6.27;;;14.30;98.00;;;;;;5072726;28;20835;-69
2023/06/18 03:21:20;;;;;;;13.60;6.10;;;14.40;98.00;;;;;;5073458;28;20457;-69
2023/06/18 03:23:47;;;;;;;12.40;6.37;;;14.20;98.00;;;;;;5073442;28;20457;-69
2023/06/18 03:26:16;;;;;;;11.07;5.80;;;14.20;98.00;;;;;;5072749;28;20457;-69
2023/06/18 03:28:47;;;;;;;13.47;5.70;;;14.00;98.00;;;;;;5073381;28;20461;-69
2023/06/18 03:31:14;;;;;;;9.80;5.40;;;14.10;98.00;;;;;;5073240;28;20971;-69
2023/06/18 03:33:41;;;;;;;11.20;5.03;;;14.40;98.00;;;;;;5072771;28;20453;-69
2023/06/18 03:36:08;;;;;;;12.87;6.27;;;14.40;98.00;;;;;;5073186;28;20467;-69
2023/06/18 03:38:35;;;;;;;12.43;5.50;;;14.20;98.00;;;;;;5073001;28;20484;-69
2023/06/18 03:41:05;;;;;;;14.73;6.20;;;14.40;98.00;;;;;;5072972;28;20461;-69
2023/06/18 03:43:33;;;;;;;11.70;6.00;;;14.50;98.00;;;;;;5073119;28;20476;-69
2023/06/18 03:46:00;;;;;;;11.60;6.20;;;14.50;98.00;;;;;;5073139;28;20498;-69
2023/06/18 03:48:27;;;;;;;14.13;5.90;;;14.40;98.00;;;;;;5067592;28;20582;-69
2023/06/18 03:50:54;;;;;;;11.73;5.73;;;14.30;98.00;;;;;;5071658;28;20445;-70
2023/06/18 03:53:22;;;;;;;10.63;5.43;;;14.40;98.00;;;;;;5073082;28;20942;-69
2023/06/18 03:55:49;;;;;;;12.03;6.20;;;14.30;98.00;;;;;;5072763;28;20458;-69
2023/06/18 03:58:17;;;;;;;10.47;5.30;;;14.30;98.00;;;;;;5072792;28;20506;-69
2023/06/18 04:00:46;;;;;;;11.27;5.67;;;14.30;98.00;;;;;;5072943;28;20468;-69
2023/06/18 04:03:13;;;;;;;11.80;5.60;;;14.40;98.00;;;;;;5072989;28;20815;-69
2023/06/18 04:05:40;;;;;;;11.37;5.50;;;14.60;98.00;;;;;;5072473;28;20484;-69
2023/06/18 04:08:07;;;;;;;11.70;5.97;;;14.70;98.00;;;;;;5070829;28;20515;-71
2023/06/18 04:10:34;;;;;;;11.27;5.90;;;14.50;98.00;;;;;;5072582;28;20457;-71
2023/06/18 04:13:01;;;;;;;10.70;5.60;;;14.50;98.00;;;;;;5072606;28;20796;-71
2023/06/18 04:15:28;;;;;;;11.03;5.80;;;14.60;98.00;;;;;;5072168;28;20456;-71
2023/06/18 04:17:57;;;;;;;13.43;6.07;;;14.60;98.00;;;;;;5072180;28;20480;-71
2023/06/18 04:20:24;;;;;;;12.17;5.93;;;14.50;98.00;;;;;;5072068;28;20449;-71
2023/06/18 04:22:51;;;;;;;12.13;6.17;;;14.50;98.00;;;;;;5072121;28;20797;-71
2023/06/18 04:25:19;;;;;;;12.57;6.30;;;14.40;98.00;;;;;;5072204;28;20918;-71
2023/06/18 04:27:46;;;;;;;11.20;5.30;;;14.50;98.00;;;;;;5070982;28;20460;-71
2023/06/18 04:30:13;;;;;;;8.10;5.23;;;14.50;98.00;;;;;;5072320;28;20966;-71
2023/06/18 04:32:41;;;;;;;10.70;5.40;;;14.50;98.00;;;;;;5072100;28;20452;-71
2023/06/18 04:35:10;;;;;;;10.47;5.30;;;14.50;98.00;;;;;;5072282;28;20544;-71
2023/06/18 04:37:37;;;;;;;12.70;5.70;;;14.70;98.00;;;;;;5072150;28;20461;-71
2023/06/18 04:40:04;;;;;;;13.93;6.90;;;14.90;98.00;;;;;;5070863;28;20548;-71
2023/06/18 04:42:31;;;;;;;13.10;6.00;;;14.90;98.00;;;;;;5072163;28;20459;-71
2023/06/18 04:44:59;;;;;;;13.00;6.23;;;15.10;98.00;;;;;;5071903;28;20513;-71
2023/06/18 04:47:26;;;;;;;11.80;5.63;;;15.20;98.00;;;;;;5072142;28;20886;-71
2023/06/18 04:49:53;;;;;;;13.50;6.00;;;15.20;98.00;;;;;;5071948;28;20940;-71
2023/06/18 04:52:21;;;;;;;11.30;5.67;;;15.10;98.00;;;;;;5072210;28;20519;-71
2023/06/18 04:54:48;;;;;;;12.40;5.97;;;15.10;98.00;;;;;;5072040;28;20526;-71
2023/06/18 04:57:17;;;;;;;12.03;6.13;;;15.40;98.00;;;;;;5072302;28;20463;-71
2023/06/18 04:59:44;;;;;;;11.27;6.30;;;15.70;98.00;;;;;;5071749;28;20899;-71
2023/06/18 05:02:11;;;;;;;10.97;5.70;;;15.80;98.00;;;;;;5071560;28;20473;-71
2023/06/18 05:04:38;;;;;;;12.37;5.93;;;15.90;98.00;;;;;;5071715;28;20460;-71
2023/06/18 05:07:06;;;;;;;13.73;6.70;;;16.10;98.00;;;;;;5071894;28;20461;-71
2023/06/18 05:09:34;;;;;;;12.63;6.20;;;16.10;98.00;;;;;;5071733;28;20453;-71
2023/06/18 05:12:01;;;;;;;15.57;6.60;;;16.30;98.00;;;;;;5071837;28;20525;-71
2023/06/18 05:14:29;;;;;;;12.30;6.00;;;16.40;98.00;;;;;;5071571;28;20943;-71
2023/06/18 05:16:57;;;;;;;11.73;6.47;;;16.40;98.00;;;;;;5071668;28;20457;-71
2023/06/18 05:19:24;;;;;;;11.43;6.00;;;16.40;98.00;;;;;;5072874;28;20524;-71
2023/06/18 05:21:52;;;;;;;10.90;6.70;;;16.50;98.00;;;;;;5075833;28;20463;-71
2023/06/18 05:24:19;;;;;;;14.33;6.03;;;16.70;98.00;;;;;;5075218;28;20510;-71
2023/06/18 05:26:55;;;;;;;12.30;6.20;;;16.70;98.00;;;;;;5075647;28;20453;-71
2023/06/18 05:29:22;;;;;;;11.47;5.80;;;16.70;98.00;;;;;;5074678;28;20822;-71
2023/06/18 05:31:49;;;;;;;12.03;6.33;;;16.70;98.00;;;;;;5075642;28;20453;-71
2023/06/18 05:34:17;;;;;;;10.70;5.67;;;16.80;98.00;;;;;;5075719;28;20820;-71
2023/06/18 05:36:44;;;;;;;12.87;6.27;;;16.90;98.00;;;;;;5074289;28;20458;-71
2023/06/18 05:39:11;;;;;;;14.87;6.10;;;17.10;98.00;;;;;;5075061;28;20484;-71
2023/06/18 05:41:38;;;;;;;11.30;6.00;;;17.10;98.00;;;;;;5075481;28;20464;-71
2023/06/18 05:44:07;;;;;;;15.63;6.67;;;17.10;98.00;;;;;;5075492;28;20826;-71
2023/06/18 05:46:35;;;;;;;14.93;6.77;;;17.10;98.00;;;;;;5075589;28;20461;-71
2023/06/18 05:49:01;;;;;;;12.13;6.30;;;17.10;98.00;;;;;;5074077;28;20518;-71
2023/06/18 05:51:29;;;;;;;10.53;6.40;;;17.20;98.00;;;;;;5075579;28;20934;-71
2023/06/18 05:53:56;;;;;;;12.17;5.83;;;17.10;98.00;;;;;;5075201;28;20469;-71
2023/06/18 05:56:23;;;;;;;13.53;6.63;;;17.10;98.00;;;;;;5073943;28;20448;-71
2023/06/18 05:58:50;;;;;;;13.10;6.47;;;17.20;98.00;;;;;;5074953;28;20500;-71
2023/06/18 06:01:19;;;;;;;10.10;5.90;;;17.30;98.00;;;;;;5074847;28;20449;-71
2023/06/18 06:03:46;;;;;;;13.23;6.23;;;17.40;98.00;;;;;;5074816;28;20463;-71
2023/06/18 06:06:13;;;;;;;13.43;6.33;;;17.40;98.00;;;;;;5074907;28;20522;-71
2023/06/18 06:08:40;;;;;;;12.30;6.23;;;17.50;98.00;;;;;;5074647;28;20449;-71
2023/06/18 06:11:07;;;;;;;12.07;6.67;;;17.50;98.00;;;;;;5074860;28;20449;-71
2023/06/18 06:13:34;;;;;;;11.13;6.43;;;17.70;98.00;;;;;;5074741;28;20995;-71
2023/06/18 06:16:01;;;;;;;12.70;6.83;;;17.80;98.00;;;;;;5074616;28;20458;-74
2023/06/18 06:18:29;;;;;;;12.27;6.50;;;17.80;98.00;;;;;;5074813;28;20855;-73
2023/06/18 06:20:56;;;;;;;10.30;5.70;;;17.80;98.00;;;;;;5074554;28;20456;-74
2023/06/18 06:23:24;;;;;;;11.67;6.03;;;17.90;98.00;;;;;;5074812;28;20449;-71
2023/06/18 06:25:52;;;;;;;13.07;6.63;;;17.90;98.00;;;;;;5073264;28;20460;-72
2023/06/18 06:28:19;;;;;;;10.20;5.97;;;18.00;98.00;;;;;;5074532;28;20518;-72
2023/06/18 06:30:47;;;;;;;12.23;6.13;;;18.10;98.00;;;;;;5073201;28;20460;-71
2023/06/18 06:33:14;;;;;;;11.37;6.23;;;18.20;98.00;;;;;;5074584;28;20459;-72
2023/06/18 06:35:43;;;;;;;11.87;6.60;;;18.30;98.00;;;;;;5074341;28;20843;-71
2023/06/18 06:38:10;;;;;;;19.90;7.43;;;18.40;98.00;;;;;;5074370;28;20787;-72
2023/06/18 06:40:38;;;;;;;12.60;6.80;;;18.50;98.00;;;;;;5074357;28;20455;-70
2023/06/18 06:43:05;;;;;;;12.67;6.60;;;18.70;98.00;;;;;;5074584;28;20554;-70
2023/06/18 06:45:32;;;;;;;9.50;5.40;;;18.80;98.00;;;;;;5074624;28;20870;-67
2023/06/18 06:47:59;;;;;;;11.37;5.60;;;19.00;98.00;;;;;;5074149;28;20453;-68
2023/06/18 06:50:27;;;;;;;7.23;4.43;;;19.40;98.00;;;;;;5074310;28;20460;-68
2023/06/18 06:52:56;;;;;;;16.60;5.93;;;19.90;98.00;;;;;;5073957;28;20453;-68
2023/06/18 06:55:23;;;;;;;10.23;5.70;;;20.20;98.00;;;;;;5074107;28;20453;-69
2023/06/18 06:57:50;;;;;;;8.90;5.30;;;20.60;98.00;;;;;;5073718;28;20452;-68
2023/06/18 07:00:18;;;;;;;10.17;5.93;;;20.90;98.00;;;;;;5073774;28;20492;-68
2023/06/18 07:02:45;;;;;;;12.13;6.33;;;21.20;98.00;;;;;;5073349;28;20460;-68
2023/06/18 07:05:12;;;;;;;10.93;5.93;;;21.50;97.20;;;;;;5073727;28;20506;-68
2023/06/18 07:07:40;;;;;;;13.37;6.80;;;21.70;96.40;;;;;;5073711;28;20460;-68
2023/06/18 07:10:09;;;;;;;12.20;6.60;;;21.90;95.90;;;;;;5072494;28;20861;-68
2023/06/18 07:12:36;;;;;;;12.97;7.17;;;22.00;95.10;;;;;;5073526;28;20923;-68
2023/06/18 07:15:03;;;;;;;14.77;6.60;;;21.90;95.30;;;;;;5073468;28;20506;-67
2023/06/18 07:17:30;;;;;;;10.13;6.23;;;21.90;95.20;;;;;;5073595;28;20460;-68
2023/06/18 07:19:57;;;;;;;11.27;6.17;;;22.00;95.20;;;;;;5073403;28;21063;-67
2023/06/18 07:22:24;;;;;;;10.47;6.40;;;22.10;94.80;;;;;;5073571;28;20935;-68
2023/06/18 07:24:53;;;;;;;12.00;6.70;;;22.30;94.40;;;;;;5073336;28;20464;-69
2023/06/18 07:27:22;;;;;;;12.53;6.87;;;22.40;94.00;;;;;;5073447;28;20540;-68
2023/06/18 07:29:49;;;;;;;15.10;8.20;;;22.50;93.70;;;;;;5073209;28;20464;-68
2023/06/18 07:32:17;;;;;;;11.03;6.40;;;22.80;92.70;;;;;;5072372;28;20453;-68
2023/06/18 07:34:44;;;;;;;16.03;6.93;;;22.80;92.60;;;;;;5072132;28;20457;-68
2023/06/18 07:37:11;;;;;;;14.00;6.80;;;22.80;92.60;;;;;;5073460;28;20453;-69
2023/06/18 07:39:38;;;;;;;12.57;7.03;;;22.80;92.40;;;;;;5073167;28;20484;-68
2023/06/18 07:42:06;;;;;;;11.40;6.20;;;22.80;92.00;;;;;;5073605;28;20826;-68
2023/06/18 07:44:34;;;;;;;13.27;6.50;;;22.90;92.10;;;;;;5072630;28;20460;-68
2023/06/18 07:47:02;;;;;;;14.10;6.80;;;22.80;91.70;;;;;;5073258;28;20452;-69
2023/06/18 07:49:29;;;;;;;14.10;6.60;;;23.00;91.90;;;;;;5072779;28;20456;-69
2023/06/18 07:51:56;;;;;;;10.53;6.47;;;23.20;91.80;;;;;;5064502;28;20500;-68
2023/06/18 07:54:23;;;;;;;13.23;6.60;;;23.40;91.30;;;;;;5052701;28;20458;-69
2023/06/18 07:56:50;;;;;;;12.20;6.73;;;23.40;91.00;;;;;;5052948;28;20469;-67
2023/06/18 07:59:17;;;;;;;11.93;6.67;;;23.60;90.00;;;;;;5051516;28;20842;-70
2023/06/18 08:01:46;;;;;;;11.30;6.50;;;23.50;90.10;;;;;;5052489;28;20859;-69
2023/06/18 08:04:13;;;;;;;11.20;6.33;;;23.50;90.30;;;;;;5051393;28;20462;-69
2023/06/18 08:06:41;;;;;;;10.83;6.40;;;23.60;89.50;;;;;;5052436;28;21053;-70
2023/06/18 08:09:08;;;;;;;15.93;6.60;;;23.80;89.30;;;;;;5052597;28;20462;-69
2023/06/18 08:11:36;;;;;;;11.47;6.10;;;23.90;89.00;;;;;;5054549;28;20453;-70
2023/06/18 08:14:04;;;;;;;12.77;6.43;;;24.00;88.30;;;;;;5072441;28;20467;-69
2023/06/18 08:16:31;;;;;;;12.40;7.30;;;24.00;88.10;;;;;;5072291;28;20456;-70
2023/06/18 08:19:00;;;;;;;12.23;6.57;;;24.00;88.10;;;;;;5072182;28;20449;-70
2023/06/18 08:21:28;;;;;;;11.23;6.37;;;24.00;88.40;;;;;;5071037;28;20452;-69
2023/06/18 08:23:55;;;;;;;12.43;6.80;;;24.20;88.50;;;;;;5072116;28;20457;-69
2023/06/18 08:26:22;;;;;;;11.27;6.50;;;24.40;87.90;;;;;;5072069;28;20506;-70
2023/06/18 08:28:50;;;;;;;10.67;6.13;;;24.40;87.50;;;;;;5069928;28;20464;-70
2023/06/18 08:31:20;;;;;;;11.10;6.93;;;24.60;87.40;;;;;;5070455;28;20547;-69
2023/06/18 08:33:47;;;;;;;14.40;7.60;;;24.70;86.10;;;;;;5070190;28;20453;-69
2023/06/18 08:36:16;;;;;;;10.40;6.63;;;24.90;86.60;;;;;;5071225;28;20866;-70
2023/06/18 08:38:43;;;;;;;14.23;7.00;;;25.00;85.80;;;;;;5071943;28;20467;-69
2023/06/18 08:41:11;;;;;;;11.53;6.60;;;25.10;85.90;;;;;;5072290;28;21007;-68
2023/06/18 08:43:38;;;;;;;14.37;7.20;;;25.30;86.10;;;;;;5072172;28;20453;-69
2023/06/18 08:46:12;;;;;;;10.80;6.67;;;25.50;84.30;;;;;;5070761;28;20457;-68
2023/06/18 08:48:43;;;;;;;11.33;6.40;;;25.70;83.50;;;;;;5071761;28;20457;-69
2023/06/18 08:51:11;;;;;;;11.93;7.27;;;25.90;82.70;;;;;;5066342;28;20458;-70
2023/06/18 08:53:43;;;;;;;11.93;6.80;;;26.10;81.80;;;;;;5051560;28;20951;-69
2023/06/18 08:56:10;;;;;;;10.77;6.10;;;26.30;81.10;;;;;;5051555;28;20450;-69
2023/06/18 08:58:45;;;;;;;7.50;5.33;;;26.50;78.00;;;;;;5051771;28;20936;-68
2023/06/18 09:01:13;;;;;;;8.03;5.13;;;26.70;72.30;;;;;;5051566;28;20488;-67
2023/06/18 09:03:42;;;;;;;11.33;6.43;;;26.90;73.60;;;;;;5051791;28;20457;-67
2023/06/18 09:06:09;;;;;;;9.80;6.07;;;27.10;70.70;;;;;;5050641;28;20848;-67
2023/06/18 09:08:38;;;;;;;7.63;5.30;;;27.30;74.00;;;;;;5051844;28;20571;-67
2023/06/18 09:11:07;;;;;;;11.97;5.97;;;27.50;69.50;;;;;;5051716;28;20505;-67
2023/06/18 09:13:34;;;;;;;9.33;5.40;;;27.70;68.70;;;;;;5051295;28;20507;-67
2023/06/18 09:16:01;;;;;;;8.70;5.47;;;27.90;67.20;;;;;;5051587;28;20457;-67
2023/06/18 09:18:29;;;;;;;9.47;4.93;;;28.00;66.90;;;;;;5051774;28;20457;-67
2023/06/18 09:20:56;;;;;;;9.40;5.43;;;28.10;67.60;;;;;;5050927;28;20485;-67
2023/06/18 09:23:23;;;;;;;10.80;6.20;;;28.30;66.50;;;;;;5246703;22;20843;-67
2023/06/18 09:25:51;;;;;;;10.07;5.50;;;28.40;65.70;;;;;;5031188;28;20452;-67
2023/06/18 09:28:20;;;;;;;9.70;5.87;;;28.50;66.10;;;;;;5031667;28;20557;-67
2023/06/18 09:30:54;;;;;;;10.00;5.63;;;28.60;65.50;;;;;;5030510;28;20456;-68
2023/06/18 09:33:33;;;;;;;8.07;5.70;;;28.70;64.40;;;;;;5028746;28;20538;-68
2023/06/18 09:36:01;;;;;;;9.73;5.70;;;28.80;64.00;;;;;;5028171;28;20512;-69
2023/06/18 09:38:36;;;;;;;9.73;6.07;;;28.90;63.70;;;;;;5031517;28;20486;-68
2023/06/18 09:41:12;;;;;;;9.63;5.80;;;29.00;64.40;;;;;;5031293;28;20607;-68
2023/06/18 09:43:43;;;;;;;9.60;5.80;;;29.30;64.90;;;;;;5031374;28;20486;-69
2023/06/18 09:46:11;;;;;;;9.70;6.30;;;29.30;63.70;;;;;;5031369;28;20458;-68
2023/06/18 09:48:43;;;;;;;8.17;5.53;;;29.60;63.20;;;;;;5031329;28;20451;-68
2023/06/18 09:51:11;;;;;;;10.00;5.70;;;29.70;64.30;;;;;;5029913;28;21030;-69
2023/06/18 09:53:38;;;;;;;8.63;5.67;;;29.90;63.40;;;;;;5031171;28;20458;-68
2023/06/18 09:56:10;;;;;;;8.53;5.10;;;29.90;61.90;;;;;;5031375;28;20793;-67
2023/06/18 09:58:43;;;;;;;9.20;6.20;;;30.00;63.00;;;;;;5031172;28;20465;-67
2023/06/18 10:01:11;;;;;;;9.20;5.93;;;30.20;63.30;;;;;;5031388;28;20482;-67
2023/06/18 10:03:39;;;;;;;9.07;5.53;;;30.40;63.30;;;;;;5031292;28;20466;-68
2023/06/18 10:06:18;;;;;;;7.70;5.30;;;30.50;63.90;;;;;;5031705;28;20951;-68
2023/06/18 10:08:47;;;;;;;9.57;5.40;;;30.50;62.90;;;;;;5033657;28;20459;-67
2023/06/18 10:11:16;;;;;;;10.77;6.20;;;30.50;62.10;;;;;;5034874;28;20454;-64
2023/06/18 10:13:47;;;;;;;9.70;5.47;;;30.50;62.40;;;;;;5034607;28;20446;-70
2023/06/18 10:16:16;;;;;;;10.57;6.40;;;30.50;62.80;;;;;;5034748;28;20485;-71
2023/06/18 10:18:53;;;;;;;9.90;6.00;;;30.70;62.80;;;;;;5034403;28;20465;-69
2023/06/18 10:21:22;;;;;;;8.83;5.67;;;30.70;62.40;;;;;;5035092;28;20490;-69
2023/06/18 10:23:54;;;;;;;10.07;6.33;;;30.90;62.20;;;;;;5035209;28;20489;-70
2023/06/18 10:26:22;;;;;;;8.60;5.50;;;30.90;61.70;;;;;;5035561;28;20504;-68
2023/06/18 10:28:52;;;;;;;8.77;5.93;;;31.10;60.90;;;;;;5035063;28;20517;-70
2023/06/18 10:31:20;;;;;;;22.57;12.73;;;31.30;60.90;;;;;;5034672;28;20458;-70
2023/06/18 10:33:48;;;;;;;15.40;8.30;;;31.40;61.90;;;;;;5035314;28;20546;-70
2023/06/18 10:36:16;;;;;;;10.90;6.77;;;31.40;59.80;;;;;;5034267;28;20500;-70
2023/06/18 10:38:45;;;;;;;17.50;10.10;;;31.40;59.30;;;;;;5034563;28;20493;-69
2023/06/18 10:41:13;;;;;;;18.43;10.90;;;31.40;60.50;;;;;;5033899;28;20616;-69
2023/06/18 10:43:41;;;;;;;14.03;9.20;;;31.60;60.70;;;;;;5034070;28;20455;-71
2023/06/18 10:46:16;;;;;;;10.73;7.40;;;31.80;60.60;;;;;;5033883;28;20497;-71
2023/06/18 10:49:03;;;;;;;8.70;5.30;;;32.00;59.00;;;;;;5032832;28;20454;-71
2023/06/18 10:51:30;;;;;;;8.87;5.40;;;32.20;57.50;;;;;;5033897;28;20454;-69
2023/06/18 10:54:22;;;;;;;8.40;5.30;;;32.20;56.00;;;;;;5034057;28;20458;-70
2023/06/18 10:56:55;;;;;;;9.30;5.27;;;32.00;56.30;;;;;;5033863;28;20953;-70
2023/06/18 10:59:42;;;;;;;9.27;5.90;;;31.80;56.60;;;;;;5034156;28;20466;-70
2023/06/18 11:02:11;;;;;;;8.40;5.53;;;31.60;57.10;;;;;;5034054;28;20556;-70
2023/06/18 11:04:38;;;;;;;8.40;5.23;;;31.60;58.60;;;;;;5033630;28;20454;-70
2023/06/18 11:07:23;;;;;;;9.77;5.83;;;31.70;58.00;;;;;;5033857;28;20458;-70
2023/06/18 11:09:53;;;;;;;11.07;5.57;;;31.80;58.60;;;;;;5033789;28;20956;-71
2023/06/18 11:12:21;;;;;;;9.27;5.93;;;32.00;58.30;;;;;;5033958;28;20487;-70
2023/06/18 11:15:12;;;;;;;9.37;5.40;;;32.30;58.00;;;;;;5033825;28;20932;-71
2023/06/18 11:17:42;;;;;;;8.40;5.30;;;32.40;57.10;;;;;;5033515;28;20625;-70
2023/06/18 11:20:12;;;;;;;8.50;5.33;;;32.30;56.50;;;;;;5033579;28;20487;-69
2023/06/18 11:22:40;;;;;;;11.30;5.70;;;32.40;55.50;;;;;;5033882;28;20553;-71
2023/06/18 11:25:09;;;;;;;9.73;5.43;;;32.30;55.60;;;;;;5033569;28;20467;-70
2023/06/18 11:27:39;;;;;;;8.70;5.40;;;32.20;57.70;;;;;;5033534;28;20581;-70
2023/06/18 11:30:09;;;;;;;9.83;6.43;;;32.30;57.00;;;;;;5033351;28;21136;-72
2023/06/18 11:32:36;;;;;;;10.60;5.90;;;32.40;58.90;;;;;;5033369;28;20517;-70
2023/06/18 11:35:06;;;;;;;9.23;6.17;;;32.60;59.20;;;;;;5033172;28;20976;-72
2023/06/18 11:37:34;;;;;;;10.00;6.57;;;32.80;58.60;;;;;;5033211;28;20995;-63
2023/06/18 11:40:02;;;;;;;9.93;6.00;;;33.00;58.70;;;;;;5033000;28;20461;-65
2023/06/18 11:42:32;;;;;;;8.40;5.60;;;33.10;57.80;;;;;;5033163;28;20516;-65
2023/06/18 11:45:01;;;;;;;12.87;6.03;;;33.20;58.10;;;;;;5033103;28;20450;-67
2023/06/18 11:47:29;;;;;;;8.30;5.60;;;33.20;57.20;;;;;;5032933;28;20466;-66
2023/06/18 11:49:57;;;;;;;9.57;5.90;;;33.50;57.70;;;;;;5032972;28;20999;-69
2023/06/18 11:52:28;;;;;;;7.60;5.40;;;33.70;58.30;;;;;;5033041;28;20458;-68
2023/06/18 11:55:06;;;;;;;9.70;5.90;;;33.90;57.80;;;;;;5032835;28;20462;-69
2023/06/18 11:57:33;;;;;;;7.90;5.37;;;33.90;57.30;;;;;;5032969;28;20458;-68
2023/06/18 12:00:00;;;;;;;8.83;5.70;;;34.10;56.00;;;;;;5032697;28;20469;-69
2023/06/18 12:02:28;;;;;;;8.83;5.40;;;34.20;54.80;;;;;;5032814;28;20462;-67
2023/06/18 12:05:03;;;;;;;10.70;5.43;;;34.30;55.70;;;;;;5032648;28;20463;-65
2023/06/18 12:07:32;;;;;;;8.40;5.80;;;34.30;53.80;;;;;;5032752;28;20500;-66
2023/06/18 12:10:06;;;;;;;8.07;5.83;;;34.30;55.30;;;;;;5032589;28;20451;-66
2023/06/18 12:12:41;;;;;;;9.47;6.00;;;34.30;55.90;;;;;;5032642;28;20457;-66
2023/06/18 12:15:16;;;;;;;9.53;5.70;;;34.40;55.70;;;;;;5031529;28;20944;-68
2023/06/18 12:17:55;;;;;;;8.87;5.50;;;34.40;56.00;;;;;;5032655;28;20446;-68
2023/06/18 12:20:24;;;;;;;7.80;5.40;;;34.20;54.70;;;;;;5032645;28;20479;-69
2023/06/18 12:22:53;;;;;;;11.03;6.50;;;34.20;56.80;;;;;;5032734;28;20454;-69
2023/06/18 12:25:23;;;;;;;8.67;5.47;;;34.20;55.20;;;;;;5032385;28;20501;-69
2023/06/18 12:27:51;;;;;;;8.57;5.60;;;34.40;54.80;;;;;;5032389;28;20486;-68
2023/06/18 12:30:18;;;;;;;9.07;5.67;;;34.50;55.10;;;;;;5031808;28;20474;-69
2023/06/18 12:33:02;;;;;;;9.17;5.80;;;34.50;54.80;;;;;;5032109;28;20450;-69
2023/06/18 12:35:30;;;;;;;8.30;5.40;;;34.60;56.80;;;;;;5032097;28;20459;-69
2023/06/18 12:38:03;;;;;;;8.77;5.70;;;34.80;55.80;;;;;;5032053;28;20795;-69
2023/06/18 12:40:31;;;;;;;8.07;5.40;;;35.10;56.50;;;;;;5032171;28;20566;-69
2023/06/18 12:42:59;;;;;;;10.80;6.50;;;35.30;53.70;;;;;;5032376;28;20455;-69
2023/06/18 12:45:28;;;;;;;9.30;5.77;;;35.10;54.50;;;;;;5031988;28;20529;-70
2023/06/18 12:47:55;;;;;;;8.80;5.73;;;35.00;54.60;;;;;;5032016;28;20447;-68
2023/06/18 12:50:42;;;;;;;11.43;5.70;;;35.20;55.40;;;;;;5032003;28;20466;-68